Terminal Aerodrome Forecast
Issued by NWS

Current Version | Previous Version | Text Only | Print | Product List | Glossary Off
Versions: 1 2 3 4 5 6 7 8 9 10 11 12 13 14 15 16 17 18 19 20 21 22

567
FTUS41 KILN 211740
TAFLCK
TAF
KLCK 211740Z 2118/2218 20008KT P6SM VCSH FEW040 BKN100 OVC200
     FM220400 15004KT P6SM SCT040 BKN090
     FM221000 06005KT P6SM BKN060
     FM221700 07007KT P6SM VCSH SCT030 BKN050
      AMD NOT SKED=

USA.gov is the U.S. government's official web portal to all federal, state and local government web resources and services.